Time;durP1;ratioP1;P1;durP2;ratioP2;P2;SDS_P1;SDS_P2;PMS_P1;PMS_P2;Temp;Humidity;BMP_temperature;BMP_pressure;BME280_temperature;BME280_humidity;BME280_pressure;Samples;Min_cycle;Max_cycle;Signal;HPM_P1;HPM_P2
2022/06/09 03:02:27;;;;;;;0.57;0.30;;;25.30;45.70;;;;;;5048651;23;45594;-60
2022/06/09 03:04:52;;;;;;;1.20;0.30;;;25.30;45.60;;;;;;4956757;28;44685;-61
2022/06/09 03:07:18;;;;;;;0.40;0.40;;;25.30;45.70;;;;;;4940556;28;45268;-60
2022/06/09 03:09:43;;;;;;;0.60;0.50;;;25.30;45.70;;;;;;4964705;28;45564;-61
2022/06/09 03:12:09;;;;;;;1.70;0.38;;;25.30;45.70;;;;;;4964138;28;46803;-61
2022/06/09 03:14:35;;;;;;;0.52;0.40;;;25.30;45.80;;;;;;4945178;28;45670;-60
2022/06/09 03:17:01;;;;;;;0.22;0.20;;;25.30;45.70;;;;;;4947131;28;45332;-62
2022/06/09 03:19:27;;;;;;;0.32;0.30;;;25.30;45.70;;;;;;4949213;28;45677;-59
2022/06/09 03:21:52;;;;;;;0.50;0.38;;;25.30;45.70;;;;;;4969261;28;45264;-59
2022/06/09 03:24:18;;;;;;;0.45;0.30;;;25.30;45.80;;;;;;4965111;28;45483;-60
2022/06/09 03:26:43;;;;;;;0.30;0.30;;;25.30;45.80;;;;;;4966139;28;45256;-61
2022/06/09 03:29:09;;;;;;;0.85;0.40;;;25.30;45.70;;;;;;4966442;28;45729;-59
2022/06/09 03:31:35;;;;;;;0.30;0.30;;;25.30;45.70;;;;;;4964631;28;46036;-59
2022/06/09 03:34:02;;;;;;;1.55;0.30;;;25.30;45.70;;;;;;4967430;28;45811;-62
2022/06/09 03:36:29;;;;;;;0.43;0.40;;;25.30;45.70;;;;;;4950459;28;45627;-61
2022/06/09 03:38:55;;;;;;;0.30;0.30;;;25.30;45.80;;;;;;4948224;28;46194;-62
2022/06/09 03:41:20;;;;;;;0.45;0.45;;;25.30;45.70;;;;;;4958745;28;46749;-61
2022/06/09 03:43:46;;;;;;;0.93;0.32;;;25.30;45.70;;;;;;4964331;28;45527;-61
2022/06/09 03:46:12;;;;;;;0.57;0.40;;;25.30;45.70;;;;;;4962914;28;46446;-61
2022/06/09 03:48:37;;;;;;;0.70;0.38;;;25.30;45.80;;;;;;4947108;28;44939;-62
2022/06/09 03:51:03;;;;;;;0.32;0.32;;;25.30;45.70;;;;;;4965489;28;46327;-60
2022/06/09 03:53:29;;;;;;;0.22;0.22;;;25.30;45.80;;;;;;4950407;28;45478;-61
2022/06/09 03:55:56;;;;;;;0.40;0.35;;;25.30;45.80;;;;;;4946486;28;44942;-60
2022/06/09 03:58:21;;;;;;;0.63;0.52;;;25.30;46.40;;;;;;4948837;28;45342;-62
2022/06/09 04:00:47;;;;;;;0.55;0.28;;;25.30;45.80;;;;;;4957853;28;45124;-61
2022/06/09 04:03:12;;;;;;;0.50;0.38;;;25.20;45.80;;;;;;4949601;28;45508;-61
2022/06/09 04:05:38;;;;;;;0.30;0.30;;;25.30;45.80;;;;;;4970220;28;46456;-59
2022/06/09 04:08:04;;;;;;;0.35;0.30;;;25.20;45.80;;;;;;4970253;28;45065;-61
2022/06/09 04:10:30;;;;;;;0.43;0.40;;;25.20;45.90;;;;;;4964595;28;45527;-61
2022/06/09 04:12:56;;;;;;;0.45;0.30;;;25.20;45.80;;;;;;4933999;28;46056;-59
2022/06/09 04:15:22;;;;;;;0.60;0.40;;;25.20;45.80;;;;;;4963614;28;45537;-59
2022/06/09 04:17:48;;;;;;;0.57;0.30;;;25.20;45.80;;;;;;4967614;28;45737;-62
2022/06/09 04:20:15;;;;;;;0.85;0.50;;;25.30;45.80;;;;;;4947911;28;45520;-60
2022/06/09 04:22:41;;;;;;;1.45;0.70;;;25.30;45.80;;;;;;4951326;28;45447;-59
2022/06/09 04:25:07;;;;;;;0.43;0.40;;;25.30;45.80;;;;;;4967359;28;45926;-60
2022/06/09 04:27:32;;;;;;;0.73;0.40;;;25.30;45.80;;;;;;4966463;28;45640;-60
2022/06/09 04:29:58;;;;;;;0.82;0.47;;;25.30;45.80;;;;;;4962670;28;45679;-59
2022/06/09 04:32:24;;;;;;;0.35;0.30;;;25.20;45.90;;;;;;4960423;28;45531;-61
2022/06/09 04:34:50;;;;;;;0.65;0.35;;;25.20;45.80;;;;;;4967607;28;45358;-61
2022/06/09 04:37:15;;;;;;;0.60;0.30;;;25.20;45.80;;;;;;4966357;28;45063;-61
2022/06/09 04:39:41;;;;;;;0.88;0.40;;;25.20;45.80;;;;;;4944710;28;46096;-61
2022/06/09 04:42:07;;;;;;;1.90;0.52;;;25.20;45.80;;;;;;4963538;28;45362;-59
2022/06/09 04:44:33;;;;;;;1.25;0.50;;;25.20;45.90;;;;;;4950643;28;44813;-59
2022/06/09 04:46:59;;;;;;;0.45;0.45;;;25.20;45.90;;;;;;4952813;28;45366;-61
2022/06/09 04:49:24;;;;;;;0.73;0.40;;;25.20;45.90;;;;;;4971161;28;45983;-60
2022/06/09 04:51:50;;;;;;;0.65;0.40;;;25.20;45.90;;;;;;4971146;28;45031;-61
2022/06/09 04:54:15;;;;;;;0.40;0.40;;;25.20;45.90;;;;;;4966492;28;45269;-60
2022/06/09 04:56:41;;;;;;;0.98;0.47;;;25.10;45.90;;;;;;4970887;28;45573;-62
2022/06/09 04:59:06;;;;;;;1.08;0.50;;;25.20;46.00;;;;;;4970272;28;46327;-61
2022/06/09 05:01:32;;;;;;;0.85;0.40;;;25.20;46.00;;;;;;4968124;28;45034;-61
2022/06/09 05:03:58;;;;;;;0.80;0.47;;;25.20;46.00;;;;;;4949733;28;45336;-60
2022/06/09 05:06:24;;;;;;;0.50;0.40;;;25.20;46.00;;;;;;4936586;28;45331;-61
2022/06/09 05:08:50;;;;;;;0.40;0.40;;;25.20;46.00;;;;;;4966717;28;45903;-60
2022/06/09 05:11:16;;;;;;;0.50;0.50;;;25.20;46.00;;;;;;4968485;28;45197;-61
2022/06/09 05:13:41;;;;;;;0.55;0.30;;;25.20;46.00;;;;;;4951302;28;45616;-61
2022/06/09 05:16:08;;;;;;;0.63;0.50;;;25.20;46.10;;;;;;4949654;28;45407;-60
2022/06/09 05:18:33;;;;;;;0.40;0.40;;;25.10;46.00;;;;;;4970170;28;45417;-61
2022/06/09 05:20:59;;;;;;;1.05;0.40;;;25.20;46.00;;;;;;4939046;28;45077;-60
2022/06/09 05:23:25;;;;;;;0.25;0.20;;;25.20;46.00;;;;;;4954640;28;44723;-57
2022/06/09 05:25:52;;;;;;;0.50;0.50;;;25.20;46.00;;;;;;4936754;28;45617;-61
2022/06/09 05:28:18;;;;;;;0.55;0.47;;;25.20;46.10;;;;;;4952748;28;46917;-60
2022/06/09 05:30:44;;;;;;;0.40;0.40;;;25.20;46.10;;;;;;4952150;28;45299;-61
2022/06/09 05:33:09;;;;;;;0.70;0.50;;;25.20;46.10;;;;;;4972343;28;44986;-62
2022/06/09 05:35:35;;;;;;;1.25;0.57;;;25.20;46.10;;;;;;4973992;28;45491;-60
2022/06/09 05:46:16;;;;;;;0.30;0.30;;;25.20;46.00;;;;;;4962729;28;45506;-60
2022/06/09 05:48:43;;;;;;;0.52;0.40;;;25.20;46.00;;;;;;4959515;28;45108;-61
2022/06/09 05:51:09;;;;;;;1.00;0.40;;;25.20;46.00;;;;;;4952291;28;45581;-61
2022/06/09 05:53:35;;;;;;;0.40;0.35;;;25.20;45.90;;;;;;4961722;28;45312;-59
2022/06/09 05:56:02;;;;;;;0.93;0.50;;;25.20;45.90;;;;;;4974923;28;45378;-59
2022/06/09 05:58:27;;;;;;;2.33;0.60;;;25.20;45.90;;;;;;4968736;28;46203;-61
2022/06/09 06:00:53;;;;;;;0.50;0.50;;;25.20;46.00;;;;;;4975545;28;45713;-59
2022/06/09 06:03:19;;;;;;;0.40;0.40;;;25.20;46.00;;;;;;4958429;28;45348;-60
2022/06/09 06:08:29;;;;;;;0.98;0.43;;;25.20;46.00;;;;;;4977113;28;45984;-59
2022/06/09 06:10:56;;;;;;;0.70;0.50;;;25.20;46.10;;;;;;4975571;28;44936;-67
2022/06/09 06:13:21;;;;;;;0.73;0.50;;;25.20;46.10;;;;;;4974524;28;45691;-64
2022/06/09 06:15:47;;;;;;;0.88;0.60;;;25.20;46.00;;;;;;4973009;28;45086;-60
2022/06/09 06:18:12;;;;;;;1.33;0.50;;;25.20;46.00;;;;;;4974395;28;46723;-67
2022/06/09 06:20:38;;;;;;;1.13;0.50;;;25.30;46.10;;;;;;4966628;28;45305;-57
2022/06/09 06:23:03;;;;;;;0.65;0.50;;;25.30;46.00;;;;;;4959423;28;45220;-58
2022/06/09 06:25:29;;;;;;;1.30;0.32;;;25.30;46.00;;;;;;4966227;28;45516;-60
2022/06/09 06:27:55;;;;;;;1.58;0.60;;;25.20;46.00;;;;;;4970565;28;45989;-62
2022/06/09 06:30:20;;;;;;;0.40;0.40;;;25.30;45.90;;;;;;4967392;28;45460;-70
2022/06/09 06:32:46;;;;;;;0.77;0.47;;;25.40;46.00;;;;;;4979377;28;45415;-59
2022/06/09 06:35:13;;;;;;;0.40;0.40;;;25.40;45.90;;;;;;4974588;28;45730;-62
2022/06/09 06:37:38;;;;;;;1.58;0.50;;;25.40;46.50;;;;;;4975355;28;46092;-58
2022/06/09 06:40:05;;;;;;;0.82;0.43;;;25.40;45.80;;;;;;4962404;28;45737;-64
2022/06/09 06:42:30;;;;;;;0.65;0.50;;;25.40;45.70;;;;;;4974262;28;45449;-59
2022/06/09 06:44:56;;;;;;;0.77;0.40;;;25.50;45.70;;;;;;4986818;28;45498;-64
2022/06/09 06:47:21;;;;;;;0.47;0.40;;;25.50;45.70;;;;;;4973522;28;46001;-58
2022/06/09 06:49:47;;;;;;;0.65;0.38;;;25.50;45.80;;;;;;4970384;28;45414;-58
2022/06/09 06:52:12;;;;;;;0.82;0.50;;;25.50;45.80;;;;;;4976623;28;45432;-64
2022/06/09 06:54:38;;;;;;;2.05;0.50;;;25.50;45.70;;;;;;4973115;28;45661;-56
2022/06/09 06:57:05;;;;;;;3.28;0.40;;;25.50;45.70;;;;;;4973313;28;46252;-58
2022/06/09 06:59:32;;;;;;;0.60;0.60;;;25.50;45.70;;;;;;4968711;28;45188;-62
2022/06/09 07:01:58;;;;;;;1.27;0.57;;;25.50;45.70;;;;;;4948436;28;45187;-61
2022/06/09 07:04:23;;;;;;;0.77;0.60;;;25.60;45.70;;;;;;4955806;28;45359;-60
2022/06/09 07:06:49;;;;;;;0.63;0.40;;;25.60;45.70;;;;;;4949411;28;45826;-63
2022/06/09 07:09:15;;;;;;;1.23;0.47;;;25.60;45.60;;;;;;4954939;28;45302;-61
2022/06/09 07:11:40;;;;;;;1.90;0.57;;;25.60;45.60;;;;;;4963307;28;45634;-65
2022/06/09 07:14:06;;;;;;;1.88;0.55;;;25.60;45.50;;;;;;4955792;28;45022;-69
2022/06/09 07:16:33;;;;;;;0.50;0.40;;;25.70;45.50;;;;;;4961082;28;45925;-67
2022/06/09 07:18:58;;;;;;;0.63;0.43;;;25.70;45.40;;;;;;4949882;28;45274;-57
2022/06/09 07:21:24;;;;;;;0.63;0.32;;;25.80;45.40;;;;;;4951587;28;45526;-61
2022/06/09 07:23:50;;;;;;;3.30;0.60;;;25.80;45.30;;;;;;4957607;28;45494;-72
2022/06/09 07:26:16;;;;;;;1.88;0.60;;;25.80;45.30;;;;;;4952563;28;45873;-58
2022/06/09 07:28:41;;;;;;;0.60;0.40;;;25.80;45.30;;;;;;4954525;28;45194;-58
2022/06/09 07:31:07;;;;;;;1.45;0.52;;;25.90;45.30;;;;;;4953621;28;45182;-55
2022/06/09 07:33:34;;;;;;;0.68;0.47;;;25.90;45.30;;;;;;4954834;28;45871;-61
2022/06/09 07:35:59;;;;;;;1.17;0.52;;;25.80;45.20;;;;;;4955468;28;45325;-62
2022/06/09 07:38:25;;;;;;;0.75;0.50;;;25.90;45.30;;;;;;4957559;28;45227;-58
2022/06/09 07:40:51;;;;;;;0.88;0.40;;;25.90;45.20;;;;;;4944282;28;45298;-64
2022/06/09 07:43:19;;;;;;;1.13;0.73;;;25.90;45.20;;;;;;4951438;28;45517;-55
2022/06/09 07:45:44;;;;;;;1.48;0.70;;;25.90;45.10;;;;;;4945659;28;47083;-61
2022/06/09 07:48:10;;;;;;;1.52;0.52;;;26.00;45.10;;;;;;4957348;28;44647;-63
2022/06/09 07:50:35;;;;;;;1.75;0.50;;;26.00;45.00;;;;;;4954982;28;45223;-59
2022/06/09 07:53:01;;;;;;;1.48;0.52;;;26.00;45.00;;;;;;4960141;28;45279;-59
2022/06/09 07:55:27;;;;;;;0.90;0.63;;;26.00;44.90;;;;;;4946816;28;46190;-57
2022/06/09 07:57:52;;;;;;;1.48;0.43;;;26.10;44.90;;;;;;4954187;28;45537;-60
2022/06/09 08:00:18;;;;;;;1.52;0.43;;;26.10;44.90;;;;;;4953833;28;45394;-59
2022/06/09 08:02:44;;;;;;;1.42;0.60;;;26.10;44.90;;;;;;4947281;28;45259;-59
2022/06/09 08:05:10;;;;;;;3.03;0.50;;;26.10;44.90;;;;;;4956665;28;46326;-59
2022/06/09 08:07:36;;;;;;;2.08;0.70;;;26.10;44.90;;;;;;4959090;28;45277;-59
2022/06/09 08:10:03;;;;;;;1.52;0.57;;;26.10;44.80;;;;;;4966795;28;45433;-60
2022/06/09 08:12:29;;;;;;;1.13;0.45;;;26.10;44.80;;;;;;4969650;28;45311;-57
2022/06/09 08:14:54;;;;;;;1.77;0.70;;;26.10;44.80;;;;;;4966967;28;45508;-60
2022/06/09 08:17:20;;;;;;;0.95;0.50;;;26.10;44.70;;;;;;4974004;28;45389;-56
2022/06/09 08:19:47;;;;;;;0.73;0.50;;;26.10;44.70;;;;;;4963739;28;45259;-58
2022/06/09 08:22:13;;;;;;;1.63;0.68;;;26.10;44.70;;;;;;4953593;28;45594;-62
2022/06/09 08:24:39;;;;;;;0.82;0.50;;;26.10;44.70;;;;;;4970074;28;46065;-61
2022/06/09 08:27:05;;;;;;;1.30;0.50;;;26.10;44.60;;;;;;4970483;28;45460;-61
2022/06/09 08:29:30;;;;;;;0.55;0.40;;;26.10;44.70;;;;;;4933814;28;45421;-63
2022/06/09 08:31:56;;;;;;;1.05;0.50;;;26.20;44.70;;;;;;4972493;28;45271;-62
2022/06/09 08:34:22;;;;;;;0.85;0.43;;;26.20;44.60;;;;;;4951404;28;46231;-57
2022/06/09 08:36:47;;;;;;;0.57;0.32;;;26.20;44.60;;;;;;4971015;28;45532;-59
2022/06/09 08:39:13;;;;;;;1.10;0.57;;;26.20;44.60;;;;;;4966692;28;45237;-58
2022/06/09 08:42:13;;;;;;;1.25;0.40;;;26.20;44.60;;;;;;4970578;28;44898;-57
2022/06/09 08:44:45;;;;;;;0.88;0.50;;;26.30;44.40;;;;;;4894493;28;45428;-59
2022/06/09 08:47:35;;;;;;;1.25;0.52;;;26.30;44.50;;;;;;4945025;28;44652;-57
2022/06/09 08:50:11;;;;;;;0.70;0.40;;;26.30;44.40;;;;;;4953580;28;45510;-57
2022/06/09 08:53:09;;;;;;;1.50;0.60;;;26.30;44.40;;;;;;4952426;28;45364;-57
2022/06/09 08:55:41;;;;;;;1.15;0.50;;;26.30;44.20;;;;;;4951922;28;45255;-60
2022/06/09 08:58:18;;;;;;;0.93;0.43;;;26.30;44.20;;;;;;4970207;28;44779;-58
2022/06/09 09:00:48;;;;;;;2.08;0.68;;;26.30;44.10;;;;;;4967508;28;45145;-59
2022/06/09 09:03:28;;;;;;;0.55;0.50;;;26.30;44.20;;;;;;4953047;28;44803;-61
2022/06/09 09:06:19;;;;;;;1.48;0.43;;;26.40;44.10;;;;;;4957430;28;46196;-59
2022/06/09 09:08:45;;;;;;;2.38;0.60;;;26.40;44.10;;;;;;4952997;28;45066;-55
2022/06/09 09:11:33;;;;;;;1.08;0.50;;;26.40;44.20;;;;;;4953502;28;45076;-59
2022/06/09 09:14:06;;;;;;;0.43;0.35;;;26.40;44.10;;;;;;4958177;28;45443;-59
2022/06/09 09:16:43;;;;;;;1.55;0.40;;;26.40;44.00;;;;;;4934400;28;45528;-59
2022/06/09 09:19:39;;;;;;;0.75;0.38;;;26.40;43.90;;;;;;4948293;28;45300;-60
2022/06/09 09:22:12;;;;;;;1.58;0.65;;;26.40;44.00;;;;;;4971867;28;45420;-59
2022/06/09 09:24:57;;;;;;;1.50;0.60;;;26.40;43.90;;;;;;4951693;28;44947;-58
2022/06/09 09:27:31;;;;;;;1.98;0.60;;;26.40;43.80;;;;;;4972189;28;45653;-59
2022/06/09 09:30:13;;;;;;;1.42;0.52;;;26.40;43.90;;;;;;4965738;28;45315;-60
2022/06/09 09:32:44;;;;;;;2.88;0.43;;;26.40;43.70;;;;;;4971882;28;44719;-59
2022/06/09 09:35:15;;;;;;;3.42;0.70;;;26.40;43.80;;;;;;4974887;28;44765;-57
2022/06/09 09:37:46;;;;;;;1.33;0.50;;;26.40;43.60;;;;;;4957770;28;45280;-61
2022/06/09 09:40:11;;;;;;;0.45;0.32;;;26.40;43.80;;;;;;4949779;28;45154;-56
2022/06/09 09:42:39;;;;;;;1.85;0.70;;;26.40;43.90;;;;;;4959836;28;45007;-58
2022/06/09 09:45:16;;;;;;;1.08;0.55;;;26.40;43.80;;;;;;4974389;28;44972;-57
2022/06/09 09:47:57;;;;;;;1.05;0.60;;;26.40;43.60;;;;;;4957094;28;46403;-58
2022/06/09 09:51:00;;;;;;;0.90;0.50;;;26.40;43.70;;;;;;4965965;28;45521;-54
2022/06/09 09:53:40;;;;;;;1.83;0.63;;;26.40;43.50;;;;;;4968223;28;45479;-54
2022/06/09 09:56:18;;;;;;;2.20;0.40;;;26.40;43.70;;;;;;4954296;28;45716;-58
2022/06/09 09:58:47;;;;;;;2.33;0.50;;;26.50;43.50;;;;;;4975200;28;47094;-59
2022/06/09 10:01:24;;;;;;;1.45;0.47;;;26.50;43.50;;;;;;4967839;28;44665;-58
2022/06/09 10:09:41;;;;;;;1.95;0.60;;;26.50;43.50;;;;;;4963525;28;45251;-58
2022/06/09 10:12:24;;;;;;;1.17;0.40;;;26.50;43.40;;;;;;4945446;28;45534;-59
2022/06/09 10:15:02;;;;;;;1.75;0.50;;;26.50;43.20;;;;;;4967985;28;45063;-58
2022/06/09 10:17:41;;;;;;;1.45;0.50;;;26.50;43.10;;;;;;4973415;28;45533;-58
2022/06/09 10:20:26;;;;;;;0.98;0.40;;;26.50;43.40;;;;;;4968797;28;47017;-59
2022/06/09 10:23:13;;;;;;;0.93;0.40;;;26.50;43.10;;;;;;4959490;28;44903;-59
2022/06/09 10:26:00;;;;;;;1.55;0.63;;;26.50;43.10;;;;;;4949338;28;45562;-62
2022/06/09 10:29:00;;;;;;;2.67;0.50;;;26.50;43.10;;;;;;4958436;28;45123;-59
2022/06/09 10:31:48;;;;;;;1.00;0.50;;;26.50;43.00;;;;;;4975478;28;45285;-62
2022/06/09 10:34:48;;;;;;;1.83;0.47;;;26.50;42.80;;;;;;4973124;28;45355;-61
2022/06/09 10:37:42;;;;;;;1.17;0.50;;;26.50;42.70;;;;;;4958564;28;44838;-59
2022/06/09 10:40:18;;;;;;;1.63;0.55;;;26.50;43.00;;;;;;4952024;28;45019;-58
2022/06/09 10:42:57;;;;;;;1.75;0.30;;;26.50;43.70;;;;;;4957595;28;46167;-60
2022/06/09 10:45:35;;;;;;;1.95;0.50;;;26.50;42.90;;;;;;4938251;28;44759;-60
2022/06/09 10:57:04;;;;;;;0.57;0.30;;;26.50;43.00;;;;;;4971807;28;45453;-60
2022/06/09 10:59:52;;;;;;;1.20;0.45;;;26.50;42.60;;;;;;4957752;28;45168;-61
2022/06/09 11:02:21;;;;;;;4.88;0.50;;;26.50;42.70;;;;;;4946851;28;45592;-61
2022/06/09 11:04:47;;;;;;;4.45;0.47;;;26.50;42.70;;;;;;4957767;28;46449;-60
2022/06/09 11:07:34;;;;;;;1.77;1.05;;;26.40;42.60;;;;;;4945146;28;45294;-61
2022/06/09 11:10:29;;;;;;;0.60;0.43;;;26.40;42.50;;;;;;4961917;28;45252;-60
2022/06/09 11:12:55;;;;;;;0.93;0.40;;;26.40;42.40;;;;;;4968443;28;45316;-60
2022/06/09 11:15:25;;;;;;;2.55;0.40;;;26.40;42.40;;;;;;4969024;28;47138;-59
2022/06/09 11:17:54;;;;;;;1.05;0.35;;;26.40;42.30;;;;;;4954581;28;46045;-61
2022/06/09 11:20:30;;;;;;;1.08;0.40;;;26.40;42.20;;;;;;4972233;28;45478;-60
2022/06/09 11:23:14;;;;;;;0.82;0.35;;;26.40;42.00;;;;;;4954494;28;45354;-58
2022/06/09 11:25:45;;;;;;;1.45;0.50;;;26.40;41.60;;;;;;4963494;28;45855;-61
2022/06/09 11:28:23;;;;;;;1.40;0.35;;;26.40;42.40;;;;;;4953481;28;45573;-61
2022/06/09 11:30:55;;;;;;;1.60;0.45;;;26.50;42.00;;;;;;4951688;28;45247;-58
2022/06/09 11:33:39;;;;;;;1.02;0.40;;;26.50;41.80;;;;;;4953028;28;45297;-59
2022/06/09 11:36:08;;;;;;;2.35;0.47;;;26.50;41.80;;;;;;4980336;28;45942;-59
2022/06/09 11:38:36;;;;;;;0.47;0.30;;;26.50;41.60;;;;;;4952107;28;45063;-62
2022/06/09 11:41:31;;;;;;;1.25;0.60;;;26.40;41.50;;;;;;4972456;28;45584;-59
2022/06/09 11:44:38;;;;;;;1.15;0.32;;;26.40;41.10;;;;;;4977871;28;45188;-62
2022/06/09 11:47:17;;;;;;;0.50;0.25;;;26.40;41.30;;;;;;4947063;28;46111;-60
2022/06/09 11:49:48;;;;;;;1.23;0.40;;;26.40;41.60;;;;;;4945776;28;45666;-61
2022/06/09 11:52:23;;;;;;;1.13;0.45;;;26.40;41.40;;;;;;4956788;28;45323;-61
2022/06/09 11:54:49;;;;;;;0.25;0.22;;;26.40;41.60;;;;;;4953741;28;45197;-61
2022/06/09 11:57:17;;;;;;;0.95;0.43;;;26.40;41.50;;;;;;4976555;28;45306;-61
2022/06/09 12:00:00;;;;;;;0.65;0.30;;;26.40;41.40;;;;;;4978829;28;45320;-62
2022/06/09 12:02:37;;;;;;;0.38;0.38;;;26.40;41.10;;;;;;4970954;28;44698;-61
2022/06/09 12:05:13;;;;;;;1.17;0.43;;;26.40;41.20;;;;;;4952117;28;46417;-59
2022/06/09 12:07:42;;;;;;;1.33;0.35;;;26.40;41.40;;;;;;4966742;28;46209;-61
2022/06/09 12:10:27;;;;;;;1.20;0.40;;;26.40;41.50;;;;;;4942022;28;45290;-61
2022/06/09 12:13:12;;;;;;;1.95;0.38;;;26.40;41.20;;;;;;4985159;28;45265;-59
2022/06/09 12:15:46;;;;;;;0.55;0.30;;;26.40;41.00;;;;;;4974131;28;45055;-58
2022/06/09 12:18:12;;;;;;;1.00;0.40;;;26.50;41.10;;;;;;4973901;28;46122;-57
2022/06/09 12:20:46;;;;;;;0.65;0.30;;;26.40;41.40;;;;;;4971818;28;45124;-60
2022/06/09 12:23:29;;;;;;;0.82;0.40;;;26.50;41.10;;;;;;4973626;28;44927;-60
2022/06/09 12:26:19;;;;;;;0.93;0.40;;;26.50;41.10;;;;;;4954249;28;44758;-60
2022/06/09 12:28:50;;;;;;;1.80;0.43;;;26.50;41.10;;;;;;4972073;28;45638;-58
2022/06/09 12:31:18;;;;;;;0.88;0.30;;;26.40;41.30;;;;;;4953356;28;45223;-58
2022/06/09 12:34:05;;;;;;;1.00;0.40;;;26.50;41.30;;;;;;4956767;28;45863;-56
2022/06/09 12:36:51;;;;;;;1.65;0.45;;;26.50;40.90;;;;;;4958552;28;45243;-59
2022/06/09 12:39:23;;;;;;;0.85;0.38;;;26.50;41.00;;;;;;4971717;28;44943;-60
2022/06/09 12:41:52;;;;;;;2.87;0.77;;;26.50;41.20;;;;;;4973710;28;45312;-59
2022/06/09 12:44:24;;;;;;;4.03;0.80;;;26.50;41.20;;;;;;4972400;28;44666;-60
2022/06/09 12:47:18;;;;;;;2.08;0.40;;;26.50;41.00;;;;;;4973249;28;45318;-58
2022/06/09 12:49:48;;;;;;;1.83;0.60;;;26.50;41.00;;;;;;4970105;28;46991;-59
2022/06/09 12:52:45;;;;;;;1.00;0.52;;;26.60;41.10;;;;;;4955864;28;45167;-60
2022/06/09 12:55:19;;;;;;;1.92;0.50;;;26.60;40.90;;;;;;4955703;28;45541;-59
2022/06/09 12:57:51;;;;;;;0.52;0.40;;;26.60;41.10;;;;;;4944034;28;44961;-58
2022/06/09 13:00:16;;;;;;;0.38;0.28;;;26.60;41.00;;;;;;4971019;28;46583;-58
2022/06/09 13:02:42;;;;;;;1.30;0.50;;;26.50;41.60;;;;;;4969467;28;45148;-57
2022/06/09 13:05:35;;;;;;;0.52;0.30;;;26.60;41.10;;;;;;4974841;28;45149;-60
2022/06/09 13:08:14;;;;;;;1.98;0.57;;;26.60;40.30;;;;;;4977155;28;45171;-59
2022/06/09 13:10:41;;;;;;;2.25;0.60;;;26.60;40.50;;;;;;4976349;28;44897;-58
2022/06/09 13:13:13;;;;;;;0.57;0.32;;;26.60;40.80;;;;;;4962266;28;44697;-57
2022/06/09 13:15:54;;;;;;;1.20;0.50;;;26.60;40.40;;;;;;4952561;28;45344;-64
2022/06/09 13:18:25;;;;;;;2.15;0.52;;;26.60;40.40;;;;;;4957159;28;45423;-57
2022/06/09 13:21:20;;;;;;;2.92;0.50;;;26.60;40.60;;;;;;4940377;28;46202;-57
2022/06/09 13:23:48;;;;;;;1.10;0.40;;;26.60;40.00;;;;;;4976562;28;45244;-58
2022/06/09 13:26:17;;;;;;;0.32;0.20;;;26.60;40.50;;;;;;4959212;28;44924;-57
2022/06/09 13:28:51;;;;;;;2.05;0.45;;;26.60;40.50;;;;;;4954461;28;45312;-59
2022/06/09 13:31:52;;;;;;;2.85;0.30;;;26.60;40.20;;;;;;4979758;28;45869;-58
2022/06/09 13:34:25;;;;;;;0.90;0.40;;;26.60;39.90;;;;;;4936753;28;45272;-59
2022/06/09 13:36:56;;;;;;;2.83;0.30;;;26.60;40.20;;;;;;4945731;28;45222;-59
2022/06/09 13:39:28;;;;;;;1.25;0.40;;;26.60;40.10;;;;;;4966531;28;45136;-60
2022/06/09 13:42:19;;;;;;;0.60;0.30;;;26.60;40.10;;;;;;4980200;28;46105;-59
2022/06/09 13:45:02;;;;;;;2.08;0.60;;;26.60;39.90;;;;;;4967392;28;45234;-58
2022/06/09 13:47:35;;;;;;;1.37;0.40;;;26.60;40.30;;;;;;4968497;28;45795;-61
2022/06/09 13:50:03;;;;;;;1.80;0.50;;;26.60;40.40;;;;;;4960569;28;45277;-57
2022/06/09 13:52:31;;;;;;;1.70;0.50;;;26.60;41.00;;;;;;4980074;28;45914;-60
2022/06/09 13:54:57;;;;;;;2.42;0.45;;;26.60;40.20;;;;;;4958237;28;45064;-60
2022/06/09 13:57:24;;;;;;;1.17;0.22;;;26.60;40.30;;;;;;4971912;28;45508;-60
2022/06/09 13:59:50;;;;;;;1.95;0.60;;;26.60;40.30;;;;;;4972702;28;45015;-60
2022/06/09 14:02:23;;;;;;;0.75;0.20;;;26.60;40.30;;;;;;4977205;28;46233;-60
2022/06/09 14:04:49;;;;;;;1.88;0.55;;;26.60;40.30;;;;;;4956616;28;44643;-60
2022/06/09 14:07:16;;;;;;;1.00;0.38;;;26.60;40.40;;;;;;4939957;28;45261;-62
2022/06/09 14:09:44;;;;;;;1.85;0.55;;;26.70;40.30;;;;;;4968212;28;45281;-59
2022/06/09 14:12:10;;;;;;;1.60;0.43;;;26.60;40.30;;;;;;4981937;28;46027;-60
2022/06/09 14:14:35;;;;;;;1.75;0.50;;;26.60;40.40;;;;;;4938781;28;44667;-59
2022/06/09 14:17:01;;;;;;;1.30;0.40;;;26.60;40.30;;;;;;4981187;28;45270;-61
2022/06/09 14:19:27;;;;;;;2.13;0.40;;;26.60;40.30;;;;;;4946793;28;45176;-61
2022/06/09 14:21:53;;;;;;;2.30;0.40;;;26.60;40.50;;;;;;4978113;28;46206;-60
2022/06/09 14:24:21;;;;;;;2.47;0.38;;;26.60;40.50;;;;;;4957546;28;45429;-61
2022/06/09 14:26:48;;;;;;;3.75;0.45;;;26.60;40.40;;;;;;4953787;28;44653;-60
2022/06/09 14:29:15;;;;;;;1.25;0.40;;;26.60;40.50;;;;;;4974163;28;44918;-60
2022/06/09 14:31:41;;;;;;;1.95;0.40;;;26.60;40.50;;;;;;4958487;28;46069;-59
2022/06/09 14:34:07;;;;;;;1.55;0.57;;;26.60;40.50;;;;;;4957491;28;45177;-62
2022/06/09 14:36:32;;;;;;;3.05;0.45;;;26.60;40.40;;;;;;4978268;28;45421;-59
2022/06/09 14:38:59;;;;;;;2.05;0.40;;;26.60;40.40;;;;;;4976434;28;45287;-60
2022/06/09 14:41:25;;;;;;;1.15;0.43;;;26.60;40.40;;;;;;4940218;28;46118;-63
2022/06/09 14:43:50;;;;;;;3.80;0.88;;;26.60;40.50;;;;;;4961196;28;45179;-60
2022/06/09 14:46:25;;;;;;;3.08;0.60;;;26.60;40.40;;;;;;4972966;28;45289;-59
2022/06/09 14:48:50;;;;;;;1.67;0.40;;;26.60;40.40;;;;;;4941416;28;45474;-59
2022/06/09 14:51:16;;;;;;;1.15;0.30;;;26.60;40.50;;;;;;4955045;28;45549;-61
2022/06/09 14:53:42;;;;;;;2.85;0.50;;;26.70;40.50;;;;;;4965460;28;45249;-60
2022/06/09 14:56:07;;;;;;;1.77;0.43;;;26.60;40.50;;;;;;4971589;28;45384;-62
2022/06/09 14:58:33;;;;;;;1.83;0.40;;;26.60;40.50;;;;;;4943131;28;45123;-62
2022/06/09 15:00:58;;;;;;;2.78;0.40;;;26.60;40.50;;;;;;4960944;28;45844;-60
2022/06/09 15:03:25;;;;;;;0.52;0.30;;;26.60;40.50;;;;;;4973905;28;45034;-61
2022/06/09 15:05:51;;;;;;;2.63;0.30;;;26.60;40.60;;;;;;4972309;28;45322;-58
2022/06/09 15:08:17;;;;;;;1.95;0.50;;;26.60;40.50;;;;;;4972347;28;45189;-58
2022/06/09 15:10:45;;;;;;;2.10;0.50;;;26.60;40.60;;;;;;4981073;28;46047;-59
2022/06/09 15:13:12;;;;;;;1.02;0.43;;;26.60;40.60;;;;;;4958995;28;45376;-62
2022/06/09 15:15:37;;;;;;;3.22;0.35;;;26.60;40.60;;;;;;4972412;28;45371;-62
2022/06/09 15:18:07;;;;;;;0.55;0.30;;;26.60;40.70;;;;;;4952645;28;45294;-63
2022/06/09 15:20:35;;;;;;;0.90;0.30;;;26.60;40.60;;;;;;4981702;28;45329;-62
2022/06/09 15:23:00;;;;;;;0.90;0.40;;;26.60;40.60;;;;;;4961194;28;45532;-61
2022/06/09 15:25:26;;;;;;;0.90;0.40;;;26.60;40.70;;;;;;4956630;28;44927;-62
2022/06/09 15:27:52;;;;;;;0.70;0.40;;;26.60;40.70;;;;;;4946276;28;45351;-61
2022/06/09 15:30:20;;;;;;;2.78;0.45;;;26.60;40.80;;;;;;4945345;28;45320;-62
2022/06/09 15:32:46;;;;;;;1.20;0.30;;;26.60;40.80;;;;;;4951728;28;44846;-61
2022/06/09 15:35:11;;;;;;;1.98;0.30;;;26.60;40.80;;;;;;4967267;28;45581;-62
2022/06/09 15:37:40;;;;;;;0.82;0.40;;;26.60;40.90;;;;;;4943605;28;45697;-62
2022/06/09 15:40:07;;;;;;;1.25;0.30;;;26.60;40.80;;;;;;4933158;28;45557;-62
2022/06/09 15:42:33;;;;;;;1.40;0.35;;;26.60;40.90;;;;;;4963293;28;45400;-60
2022/06/09 15:44:58;;;;;;;1.77;0.30;;;26.60;41.40;;;;;;4952628;28;45412;-62
2022/06/09 15:47:24;;;;;;;1.90;0.45;;;26.60;40.90;;;;;;4949136;28;45833;-63
2022/06/09 15:49:50;;;;;;;1.02;0.40;;;26.60;40.90;;;;;;4953488;28;45504;-62
2022/06/09 15:52:15;;;;;;;1.20;0.30;;;26.60;40.90;;;;;;4964452;28;45489;-62
2022/06/09 15:54:41;;;;;;;1.35;0.55;;;26.60;40.90;;;;;;4970762;28;45585;-62
2022/06/09 15:57:06;;;;;;;1.08;0.40;;;26.60;41.00;;;;;;4953712;28;45242;-61
2022/06/09 15:59:32;;;;;;;4.18;0.30;;;26.50;41.20;;;;;;4944105;28;45976;-62
2022/06/09 16:02:10;;;;;;;0.95;0.22;;;26.50;41.20;;;;;;4947491;28;45259;-62
2022/06/09 16:04:43;;;;;;;1.13;0.40;;;26.60;41.40;;;;;;4963620;28;45322;-62
2022/06/09 16:07:11;;;;;;;0.77;0.38;;;26.50;41.30;;;;;;4951429;28;45340;-62
2022/06/09 16:09:37;;;;;;;0.90;0.30;;;26.50;41.40;;;;;;4951290;28;45351;-62
2022/06/09 16:12:03;;;;;;;0.73;0.40;;;26.50;41.40;;;;;;4966027;28;45328;-62
2022/06/09 16:14:28;;;;;;;0.95;0.20;;;26.50;41.30;;;;;;4946972;28;45006;-62
2022/06/09 16:16:54;;;;;;;1.25;0.30;;;26.50;41.40;;;;;;4966810;28;44966;-61
2022/06/09 16:19:19;;;;;;;1.48;0.40;;;26.50;41.30;;;;;;4930253;28;47019;-62
2022/06/09 16:21:45;;;;;;;1.27;0.30;;;26.50;41.40;;;;;;4945851;28;45835;-62
2022/06/09 16:24:11;;;;;;;1.00;0.30;;;26.60;41.40;;;;;;4963952;28;45107;-62
2022/06/09 16:26:36;;;;;;;0.55;0.22;;;26.60;41.30;;;;;;4964396;28;45341;-60
2022/06/09 16:29:02;;;;;;;0.57;0.30;;;26.60;41.30;;;;;;4965951;28;47074;-61
2022/06/09 16:31:28;;;;;;;1.45;0.55;;;26.60;41.40;;;;;;4961160;28;45500;-66